sensor_id;sensor_type;location;lat;lon;timestamp;temperature;humidity
19258;DHT22;9763;48.780;9.212;2023-04-03T00:05:50;9.00;66.50
19258;DHT22;9763;48.780;9.212;2023-04-03T00:22:51;8.80;67.00
19258;DHT22;9763;48.780;9.212;2023-04-03T00:26:15;8.70;67.00
19258;DHT22;9763;48.780;9.212;2023-04-03T00:39:52;8.90;66.50
19258;DHT22;9763;48.780;9.212;2023-04-03T00:43:18;8.70;66.20
19258;DHT22;9763;48.780;9.212;2023-04-03T00:46:44;8.80;66.80
19258;DHT22;9763;48.780;9.212;2023-04-03T00:53:35;8.90;66.40
19258;DHT22;9763;48.780;9.212;2023-04-03T01:00:30;8.90;66.30
19258;DHT22;9763;48.780;9.212;2023-04-03T01:03:54;8.80;66.70
19258;DHT22;9763;48.780;9.212;2023-04-03T01:07:21;8.80;66.50
19258;DHT22;9763;48.780;9.212;2023-04-03T01:10:47;8.80;66.80
19258;DHT22;9763;48.780;9.212;2023-04-03T01:14:12;8.70;66.70
19258;DHT22;9763;48.780;9.212;2023-04-03T01:17:38;8.70;66.80
19258;DHT22;9763;48.780;9.212;2023-04-03T01:21:43;8.60;66.80
19258;DHT22;9763;48.780;9.212;2023-04-03T01:32:09;8.60;66.70
19258;DHT22;9763;48.780;9.212;2023-04-03T01:35:36;8.60;66.80
19258;DHT22;9763;48.780;9.212;2023-04-03T01:42:25;8.50;66.70
19258;DHT22;9763;48.780;9.212;2023-04-03T01:49:16;8.50;66.50
19258;DHT22;9763;48.780;9.212;2023-04-03T01:52:40;8.50;66.70
19258;DHT22;9763;48.780;9.212;2023-04-03T01:56:04;8.50;66.70
19258;DHT22;9763;48.780;9.212;2023-04-03T01:59:28;8.50;66.70
19258;DHT22;9763;48.780;9.212;2023-04-03T02:02:52;8.50;66.30
19258;DHT22;9763;48.780;9.212;2023-04-03T02:06:17;8.50;66.40
19258;DHT22;9763;48.780;9.212;2023-04-03T02:13:04;8.50;66.80
19258;DHT22;9763;48.780;9.212;2023-04-03T02:19:54;8.40;66.90
19258;DHT22;9763;48.780;9.212;2023-04-03T02:23:19;8.50;66.90
19258;DHT22;9763;48.780;9.212;2023-04-03T02:26:46;8.50;66.50
19258;DHT22;9763;48.780;9.212;2023-04-03T02:33:36;8.60;66.60
19258;DHT22;9763;48.780;9.212;2023-04-03T02:37:03;8.60;67.20
19258;DHT22;9763;48.780;9.212;2023-04-03T02:40:28;8.30;66.50
19258;DHT22;9763;48.780;9.212;2023-04-03T02:43:51;8.30;66.80
19258;DHT22;9763;48.780;9.212;2023-04-03T02:54:04;8.20;66.50
19258;DHT22;9763;48.780;9.212;2023-04-03T02:57:32;8.10;66.60
19258;DHT22;9763;48.780;9.212;2023-04-03T03:07:43;8.10;66.90
19258;DHT22;9763;48.780;9.212;2023-04-03T03:14:33;8.20;66.90
19258;DHT22;9763;48.780;9.212;2023-04-03T03:21:21;8.10;66.60
19258;DHT22;9763;48.780;9.212;2023-04-03T03:28:09;8.20;66.80
19258;DHT22;9763;48.780;9.212;2023-04-03T03:31:35;8.10;66.60
19258;DHT22;9763;48.780;9.212;2023-04-03T03:45:13;8.20;66.50
19258;DHT22;9763;48.780;9.212;2023-04-03T03:48:38;8.20;66.70
19258;DHT22;9763;48.780;9.212;2023-04-03T04:05:41;8.00;66.10
19258;DHT22;9763;48.780;9.212;2023-04-03T04:12:29;8.00;66.00
19258;DHT22;9763;48.780;9.212;2023-04-03T04:19:17;8.00;65.20
19258;DHT22;9763;48.780;9.212;2023-04-03T04:22:42;8.00;66.50
19258;DHT22;9763;48.780;9.212;2023-04-03T04:26:06;8.00;66.40
19258;DHT22;9763;48.780;9.212;2023-04-03T04:29:32;8.00;66.60
19258;DHT22;9763;48.780;9.212;2023-04-03T04:39:49;7.90;65.20
19258;DHT22;9763;48.780;9.212;2023-04-03T04:50:04;7.90;65.50
19258;DHT22;9763;48.780;9.212;2023-04-03T04:53:28;7.90;65.50
19258;DHT22;9763;48.780;9.212;2023-04-03T04:56:54;7.90;66.50
19258;DHT22;9763;48.780;9.212;2023-04-03T05:00:19;7.80;65.40
19258;DHT22;9763;48.780;9.212;2023-04-03T05:10:32;7.90;65.70
19258;DHT22;9763;48.780;9.212;2023-04-03T05:13:58;8.00;65.80
19258;DHT22;9763;48.780;9.212;2023-04-03T05:17:23;8.00;65.70
19258;DHT22;9763;48.780;9.212;2023-04-03T05:24:15;8.00;65.70
19258;DHT22;9763;48.780;9.212;2023-04-03T05:27:39;8.00;65.70
19258;DHT22;9763;48.780;9.212;2023-04-03T05:31:04;8.10;65.60
19258;DHT22;9763;48.780;9.212;2023-04-03T05:34:31;8.10;66.50
19258;DHT22;9763;48.780;9.212;2023-04-03T05:37:56;8.20;65.60
19258;DHT22;9763;48.780;9.212;2023-04-03T05:41:19;8.20;65.90
19258;DHT22;9763;48.780;9.212;2023-04-03T05:44:44;8.20;65.50
19258;DHT22;9763;48.780;9.212;2023-04-03T05:48:10;8.40;66.70
19258;DHT22;9763;48.780;9.212;2023-04-03T05:51:36;8.20;66.30
19258;DHT22;9763;48.780;9.212;2023-04-03T05:55:17;8.20;66.50
19258;DHT22;9763;48.780;9.212;2023-04-03T05:58:40;9.30;67.60
19258;DHT22;9763;48.780;9.212;2023-04-03T06:02:04;8.30;66.70
19258;DHT22;9763;48.780;9.212;2023-04-03T06:05:29;8.40;66.70
19258;DHT22;9763;48.780;9.212;2023-04-03T06:08:53;8.40;66.80
19258;DHT22;9763;48.780;9.212;2023-04-03T06:12:17;8.40;66.80
19258;DHT22;9763;48.780;9.212;2023-04-03T06:15:41;8.60;66.90
19258;DHT22;9763;48.780;9.212;2023-04-03T06:19:05;8.60;65.60
19258;DHT22;9763;48.780;9.212;2023-04-03T06:22:30;8.60;67.30
19258;DHT22;9763;48.780;9.212;2023-04-03T06:25:55;8.60;67.00
19258;DHT22;9763;48.780;9.212;2023-04-03T06:29:19;8.70;67.10
19258;DHT22;9763;48.780;9.212;2023-04-03T06:32:43;8.80;67.10
19258;DHT22;9763;48.780;9.212;2023-04-03T06:36:09;8.80;67.00
19258;DHT22;9763;48.780;9.212;2023-04-03T06:39:36;8.90;67.10
19258;DHT22;9763;48.780;9.212;2023-04-03T06:42:59;8.90;66.60
19258;DHT22;9763;48.780;9.212;2023-04-03T06:46:23;8.90;65.50
19258;DHT22;9763;48.780;9.212;2023-04-03T06:49:48;8.90;66.10
19258;DHT22;9763;48.780;9.212;2023-04-03T06:53:12;8.90;66.30
19258;DHT22;9763;48.780;9.212;2023-04-03T06:56:37;8.90;66.20
19258;DHT22;9763;48.780;9.212;2023-04-03T07:03:26;9.00;66.50
19258;DHT22;9763;48.780;9.212;2023-04-03T07:13:39;9.10;66.90
19258;DHT22;9763;48.780;9.212;2023-04-03T07:20:27;9.20;66.50
19258;DHT22;9763;48.780;9.212;2023-04-03T07:30:45;9.40;67.20
19258;DHT22;9763;48.780;9.212;2023-04-03T07:37:33;9.50;67.20
19258;DHT22;9763;48.780;9.212;2023-04-03T07:47:46;9.80;67.50
19258;DHT22;9763;48.780;9.212;2023-04-03T07:51:10;9.90;67.20
19258;DHT22;9763;48.780;9.212;2023-04-03T07:57:59;10.00;65.60
19258;DHT22;9763;48.780;9.212;2023-04-03T08:01:22;10.10;66.00
19258;DHT22;9763;48.780;9.212;2023-04-03T08:04:47;10.10;65.90
19258;DHT22;9763;48.780;9.212;2023-04-03T08:08:12;10.10;65.80
19258;DHT22;9763;48.780;9.212;2023-04-03T08:15:03;10.00;65.30
19258;DHT22;9763;48.780;9.212;2023-04-03T08:18:31;10.10;65.80
19258;DHT22;9763;48.780;9.212;2023-04-03T08:21:57;10.20;66.00
19258;DHT22;9763;48.780;9.212;2023-04-03T08:32:10;10.30;66.30
19258;DHT22;9763;48.780;9.212;2023-04-03T08:35:38;10.40;65.90
19258;DHT22;9763;48.780;9.212;2023-04-03T08:39:05;10.40;65.80
19258;DHT22;9763;48.780;9.212;2023-04-03T08:42:36;10.50;65.70
19258;DHT22;9763;48.780;9.212;2023-04-03T08:46:11;10.50;66.10
19258;DHT22;9763;48.780;9.212;2023-04-03T08:49:40;10.60;66.70
19258;DHT22;9763;48.780;9.212;2023-04-03T08:53:13;10.70;67.50
19258;DHT22;9763;48.780;9.212;2023-04-03T08:56:40;10.90;67.90
19258;DHT22;9763;48.780;9.212;2023-04-03T09:00:07;11.10;67.00
19258;DHT22;9763;48.780;9.212;2023-04-03T09:03:41;11.10;66.90
19258;DHT22;9763;48.780;9.212;2023-04-03T09:07:08;11.20;66.00
19258;DHT22;9763;48.780;9.212;2023-04-03T09:10:40;11.20;65.80
19258;DHT22;9763;48.780;9.212;2023-04-03T09:14:13;11.20;66.10
19258;DHT22;9763;48.780;9.212;2023-04-03T09:17:53;11.30;66.70
19258;DHT22;9763;48.780;9.212;2023-04-03T09:21:27;11.40;67.00
19258;DHT22;9763;48.780;9.212;2023-04-03T09:25:02;11.50;66.40
19258;DHT22;9763;48.780;9.212;2023-04-03T09:28:34;11.50;65.10
19258;DHT22;9763;48.780;9.212;2023-04-03T09:32:22;11.30;63.50
19258;DHT22;9763;48.780;9.212;2023-04-03T09:35:51;11.30;63.30
19258;DHT22;9763;48.780;9.212;2023-04-03T09:39:15;11.20;63.50
19258;DHT22;9763;48.780;9.212;2023-04-03T09:42:42;11.10;64.10
19258;DHT22;9763;48.780;9.212;2023-04-03T09:46:24;11.00;63.70
19258;DHT22;9763;48.780;9.212;2023-04-03T09:50:10;10.90;63.90
19258;DHT22;9763;48.780;9.212;2023-04-03T09:53:43;10.90;63.90
19258;DHT22;9763;48.780;9.212;2023-04-03T09:57:10;10.80;63.90
19258;DHT22;9763;48.780;9.212;2023-04-03T10:00:37;10.70;63.70
19258;DHT22;9763;48.780;9.212;2023-04-03T10:04:08;10.70;63.90
19258;DHT22;9763;48.780;9.212;2023-04-03T10:07:35;10.70;63.70
19258;DHT22;9763;48.780;9.212;2023-04-03T10:11:12;10.60;63.30
19258;DHT22;9763;48.780;9.212;2023-04-03T10:14:39;10.60;63.70
19258;DHT22;9763;48.780;9.212;2023-04-03T10:18:31;10.60;64.10
19258;DHT22;9763;48.780;9.212;2023-04-03T10:22:04;10.60;64.40
19258;DHT22;9763;48.780;9.212;2023-04-03T10:25:50;10.70;64.80
19258;DHT22;9763;48.780;9.212;2023-04-03T10:29:34;10.80;64.40
19258;DHT22;9763;48.780;9.212;2023-04-03T10:33:17;10.80;63.50
19258;DHT22;9763;48.780;9.212;2023-04-03T10:36:50;10.80;63.60
19258;DHT22;9763;48.780;9.212;2023-04-03T10:40:28;10.80;63.30
19258;DHT22;9763;48.780;9.212;2023-04-03T10:44:07;10.80;63.70
19258;DHT22;9763;48.780;9.212;2023-04-03T10:47:45;10.80;64.00
19258;DHT22;9763;48.780;9.212;2023-04-03T10:51:24;10.80;64.10
19258;DHT22;9763;48.780;9.212;2023-04-03T10:55:01;10.80;64.10
19258;DHT22;9763;48.780;9.212;2023-04-03T10:58:33;10.90;63.90
19258;DHT22;9763;48.780;9.212;2023-04-03T11:02:05;10.90;63.80
19258;DHT22;9763;48.780;9.212;2023-04-03T11:05:34;10.90;63.20
19258;DHT22;9763;48.780;9.212;2023-04-03T11:09:05;10.90;62.50
19258;DHT22;9763;48.780;9.212;2023-04-03T11:12:40;10.90;63.10
19258;DHT22;9763;48.780;9.212;2023-04-03T11:19:41;10.80;63.40
19258;DHT22;9763;48.780;9.212;2023-04-03T11:23:16;10.90;63.30
19258;DHT22;9763;48.780;9.212;2023-04-03T11:30:15;10.80;62.30
19258;DHT22;9763;48.780;9.212;2023-04-03T11:33:49;10.80;62.20
19258;DHT22;9763;48.780;9.212;2023-04-03T11:37:26;10.80;62.10
19258;DHT22;9763;48.780;9.212;2023-04-03T11:40:55;10.80;62.90
19258;DHT22;9763;48.780;9.212;2023-04-03T11:44:34;10.80;62.80
19258;DHT22;9763;48.780;9.212;2023-04-03T11:48:01;10.80;62.60
19258;DHT22;9763;48.780;9.212;2023-04-03T11:51:44;10.80;62.40
19258;DHT22;9763;48.780;9.212;2023-04-03T11:55:43;10.80;62.10
19258;DHT22;9763;48.780;9.212;2023-04-03T11:59:21;10.80;62.50
19258;DHT22;9763;48.780;9.212;2023-04-03T12:10:21;10.90;62.30
19258;DHT22;9763;48.780;9.212;2023-04-03T12:14:04;10.90;62.30
19258;DHT22;9763;48.780;9.212;2023-04-03T12:17:38;10.80;61.80
19258;DHT22;9763;48.780;9.212;2023-04-03T12:21:02;10.80;61.60
19258;DHT22;9763;48.780;9.212;2023-04-03T12:24:27;10.80;61.60
19258;DHT22;9763;48.780;9.212;2023-04-03T12:31:19;10.90;62.10
19258;DHT22;9763;48.780;9.212;2023-04-03T12:34:55;10.90;61.80
19258;DHT22;9763;48.780;9.212;2023-04-03T12:38:58;10.90;61.80
19258;DHT22;9763;48.780;9.212;2023-04-03T12:42:47;10.90;61.00
19258;DHT22;9763;48.780;9.212;2023-04-03T12:46:35;11.00;61.50
19258;DHT22;9763;48.780;9.212;2023-04-03T12:50:03;11.00;61.50
19258;DHT22;9763;48.780;9.212;2023-04-03T12:53:39;11.00;62.10
19258;DHT22;9763;48.780;9.212;2023-04-03T12:57:12;11.10;62.20
19258;DHT22;9763;48.780;9.212;2023-04-03T13:00:39;11.20;62.20
19258;DHT22;9763;48.780;9.212;2023-04-03T13:04:04;11.40;63.00
19258;DHT22;9763;48.780;9.212;2023-04-03T13:07:30;11.50;63.20
19258;DHT22;9763;48.780;9.212;2023-04-03T13:10:59;9.90;62.20
19258;DHT22;9763;48.780;9.212;2023-04-03T13:14:27;11.80;62.10
19258;DHT22;9763;48.780;9.212;2023-04-03T13:21:20;12.00;61.70
19258;DHT22;9763;48.780;9.212;2023-04-03T13:24:49;12.00;61.70
19258;DHT22;9763;48.780;9.212;2023-04-03T13:28:18;12.00;61.40
19258;DHT22;9763;48.780;9.212;2023-04-03T13:31:43;12.00;62.00
19258;DHT22;9763;48.780;9.212;2023-04-03T13:35:32;12.00;61.00
19258;DHT22;9763;48.780;9.212;2023-04-03T13:39:03;12.00;61.30
19258;DHT22;9763;48.780;9.212;2023-04-03T13:42:32;12.10;62.10
19258;DHT22;9763;48.780;9.212;2023-04-03T13:46:03;12.10;62.10
19258;DHT22;9763;48.780;9.212;2023-04-03T13:49:32;12.30;62.40
19258;DHT22;9763;48.780;9.212;2023-04-03T13:53:01;12.40;61.80
19258;DHT22;9763;48.780;9.212;2023-04-03T13:56:35;12.50;61.90
19258;DHT22;9763;48.780;9.212;2023-04-03T14:03:43;12.60;61.10
19258;DHT22;9763;48.780;9.212;2023-04-03T14:10:32;12.60;60.30
19258;DHT22;9763;48.780;9.212;2023-04-03T14:14:00;12.60;60.30
19258;DHT22;9763;48.780;9.212;2023-04-03T14:17:27;12.50;60.20
19258;DHT22;9763;48.780;9.212;2023-04-03T14:24:14;12.40;59.80
19258;DHT22;9763;48.780;9.212;2023-04-03T14:27:41;12.20;59.60
19258;DHT22;9763;48.780;9.212;2023-04-03T14:31:08;12.20;59.20
19258;DHT22;9763;48.780;9.212;2023-04-03T14:34:33;12.10;59.00
19258;DHT22;9763;48.780;9.212;2023-04-03T14:41:22;12.10;59.40
19258;DHT22;9763;48.780;9.212;2023-04-03T14:48:17;12.10;59.50
19258;DHT22;9763;48.780;9.212;2023-04-03T14:51:43;12.10;59.50
19258;DHT22;9763;48.780;9.212;2023-04-03T14:55:08;12.10;59.50
19258;DHT22;9763;48.780;9.212;2023-04-03T14:58:32;12.00;59.00
19258;DHT22;9763;48.780;9.212;2023-04-03T15:05:23;12.00;58.90
19258;DHT22;9763;48.780;9.212;2023-04-03T15:08:47;12.00;58.90
19258;DHT22;9763;48.780;9.212;2023-04-03T15:12:11;11.90;58.90
19258;DHT22;9763;48.780;9.212;2023-04-03T15:15:41;11.80;58.90
19258;DHT22;9763;48.780;9.212;2023-04-03T15:19:05;11.90;59.10
19258;DHT22;9763;48.780;9.212;2023-04-03T15:22:30;11.90;58.90
19258;DHT22;9763;48.780;9.212;2023-04-03T15:25:54;11.80;58.40
19258;DHT22;9763;48.780;9.212;2023-04-03T15:29:17;11.80;57.80
19258;DHT22;9763;48.780;9.212;2023-04-03T15:39:50;11.40;56.80
19258;DHT22;9763;48.780;9.212;2023-04-03T15:50:03;11.10;56.40
19258;DHT22;9763;48.780;9.212;2023-04-03T15:56:55;10.90;56.70
19258;DHT22;9763;48.780;9.212;2023-04-03T16:00:19;10.80;56.90
19258;DHT22;9763;48.780;9.212;2023-04-03T16:03:44;10.70;56.90
19258;DHT22;9763;48.780;9.212;2023-04-03T16:10:32;10.70;57.30
19258;DHT22;9763;48.780;9.212;2023-04-03T16:13:57;10.60;57.20
19258;DHT22;9763;48.780;9.212;2023-04-03T16:17:21;10.60;57.20
19258;DHT22;9763;48.780;9.212;2023-04-03T16:20:45;10.60;57.10
19258;DHT22;9763;48.780;9.212;2023-04-03T16:27:35;10.50;56.10
19258;DHT22;9763;48.780;9.212;2023-04-03T16:31:02;10.50;56.60
19258;DHT22;9763;48.780;9.212;2023-04-03T16:34:26;10.40;56.40
19258;DHT22;9763;48.780;9.212;2023-04-03T16:44:39;10.40;56.70
19258;DHT22;9763;48.780;9.212;2023-04-03T16:48:05;10.40;56.40
19258;DHT22;9763;48.780;9.212;2023-04-03T16:51:28;10.50;57.00
19258;DHT22;9763;48.780;9.212;2023-04-03T16:58:17;10.50;56.60
19258;DHT22;9763;48.780;9.212;2023-04-03T17:05:10;10.50;57.00
19258;DHT22;9763;48.780;9.212;2023-04-03T17:11:58;10.50;56.80
19258;DHT22;9763;48.780;9.212;2023-04-03T17:15:22;10.50;57.10
19258;DHT22;9763;48.780;9.212;2023-04-03T17:18:47;10.40;56.90
19258;DHT22;9763;48.780;9.212;2023-04-03T17:22:13;10.40;56.90
19258;DHT22;9763;48.780;9.212;2023-04-03T17:29:02;10.30;56.20
19258;DHT22;9763;48.780;9.212;2023-04-03T17:35:50;10.20;56.20
19258;DHT22;9763;48.780;9.212;2023-04-03T17:39:16;10.20;56.20
19258;DHT22;9763;48.780;9.212;2023-04-03T17:46:05;10.10;56.20
19258;DHT22;9763;48.780;9.212;2023-04-03T17:49:30;10.00;56.10
19258;DHT22;9763;48.780;9.212;2023-04-03T17:52:54;10.00;56.20
19258;DHT22;9763;48.780;9.212;2023-04-03T17:56:21;10.00;56.10
19258;DHT22;9763;48.780;9.212;2023-04-03T18:06:37;9.80;57.00
19258;DHT22;9763;48.780;9.212;2023-04-03T18:10:04;9.80;57.20
19258;DHT22;9763;48.780;9.212;2023-04-03T18:13:31;9.70;57.10
19258;DHT22;9763;48.780;9.212;2023-04-03T18:20:23;9.70;57.10
19258;DHT22;9763;48.780;9.212;2023-04-03T18:23:49;9.60;57.00
19258;DHT22;9763;48.780;9.212;2023-04-03T18:27:17;9.60;57.10
19258;DHT22;9763;48.780;9.212;2023-04-03T18:30:43;9.60;57.20
19258;DHT22;9763;48.780;9.212;2023-04-03T18:37:31;9.50;57.10
19258;DHT22;9763;48.780;9.212;2023-04-03T18:44:20;9.50;56.90
19258;DHT22;9763;48.780;9.212;2023-04-03T18:47:47;9.40;56.80
19258;DHT22;9763;48.780;9.212;2023-04-03T18:51:11;9.40;56.70
19258;DHT22;9763;48.780;9.212;2023-04-03T18:57:59;9.20;56.40
19258;DHT22;9763;48.780;9.212;2023-04-03T19:01:23;9.10;56.50
19258;DHT22;9763;48.780;9.212;2023-04-03T19:04:50;9.10;56.50
19258;DHT22;9763;48.780;9.212;2023-04-03T19:18:27;8.80;56.70
19258;DHT22;9763;48.780;9.212;2023-04-03T19:21:53;8.40;56.60
19258;DHT22;9763;48.780;9.212;2023-04-03T19:25:16;8.70;56.80
19258;DHT22;9763;48.780;9.212;2023-04-03T19:38:56;8.70;57.20
19258;DHT22;9763;48.780;9.212;2023-04-03T19:42:19;8.70;57.20
19258;DHT22;9763;48.780;9.212;2023-04-03T19:55:57;8.60;56.90
19258;DHT22;9763;48.780;9.212;2023-04-03T19:59:21;8.60;56.90
19258;DHT22;9763;48.780;9.212;2023-04-03T20:06:08;8.50;56.70
19258;DHT22;9763;48.780;9.212;2023-04-03T20:12:58;8.30;56.40
19258;DHT22;9763;48.780;9.212;2023-04-03T20:16:22;8.30;56.20
19258;DHT22;9763;48.780;9.212;2023-04-03T20:19:47;8.20;56.30
19258;DHT22;9763;48.780;9.212;2023-04-03T20:23:12;8.10;56.00
19258;DHT22;9763;48.780;9.212;2023-04-03T20:26:36;8.10;56.70
19258;DHT22;9763;48.780;9.212;2023-04-03T20:30:10;8.00;56.70
19258;DHT22;9763;48.780;9.212;2023-04-03T20:33:35;7.90;55.80
19258;DHT22;9763;48.780;9.212;2023-04-03T20:36:59;7.90;56.80
19258;DHT22;9763;48.780;9.212;2023-04-03T20:40:23;7.90;56.80
19258;DHT22;9763;48.780;9.212;2023-04-03T20:43:46;7.90;56.90
19258;DHT22;9763;48.780;9.212;2023-04-03T20:47:11;7.70;56.80
19258;DHT22;9763;48.780;9.212;2023-04-03T20:50:35;7.70;56.50
19258;DHT22;9763;48.780;9.212;2023-04-03T20:53:58;7.60;56.70
19258;DHT22;9763;48.780;9.212;2023-04-03T20:57:22;7.50;56.50
19258;DHT22;9763;48.780;9.212;2023-04-03T21:04:16;7.40;56.00
19258;DHT22;9763;48.780;9.212;2023-04-03T21:20:24;7.10;56.00
19258;DHT22;9763;48.780;9.212;2023-04-03T21:24:08;7.00;56.00
19258;DHT22;9763;48.780;9.212;2023-04-03T21:31:07;6.90;56.00
19258;DHT22;9763;48.780;9.212;2023-04-03T21:34:32;6.90;56.00
19258;DHT22;9763;48.780;9.212;2023-04-03T21:37:57;6.80;56.10
19258;DHT22;9763;48.780;9.212;2023-04-03T21:41:21;6.80;56.20
19258;DHT22;9763;48.780;9.212;2023-04-03T21:55:05;6.60;56.10
19258;DHT22;9763;48.780;9.212;2023-04-03T21:58:30;6.60;55.90
19258;DHT22;9763;48.780;9.212;2023-04-03T22:05:18;6.50;56.10
19258;DHT22;9763;48.780;9.212;2023-04-03T22:08:42;6.40;56.20
19258;DHT22;9763;48.780;9.212;2023-04-03T22:12:08;6.40;55.90
19258;DHT22;9763;48.780;9.212;2023-04-03T22:15:35;6.40;56.00
19258;DHT22;9763;48.780;9.212;2023-04-03T22:25:59;6.20;56.00
19258;DHT22;9763;48.780;9.212;2023-04-03T22:29:25;6.20;56.10
19258;DHT22;9763;48.780;9.212;2023-04-03T22:36:13;6.10;56.30
19258;DHT22;9763;48.780;9.212;2023-04-03T22:46:26;6.00;56.30
19258;DHT22;9763;48.780;9.212;2023-04-03T22:49:50;5.90;56.20
19258;DHT22;9763;48.780;9.212;2023-04-03T22:53:14;5.90;56.30
19258;DHT22;9763;48.780;9.212;2023-04-03T23:03:27;5.80;56.20
19258;DHT22;9763;48.780;9.212;2023-04-03T23:06:50;5.80;56.30
19258;DHT22;9763;48.780;9.212;2023-04-03T23:10:15;5.70;56.30
19258;DHT22;9763;48.780;9.212;2023-04-03T23:13:39;5.70;56.30
19258;DHT22;9763;48.780;9.212;2023-04-03T23:17:04;5.60;56.30
19258;DHT22;9763;48.780;9.212;2023-04-03T23:20:29;5.60;56.30
19258;DHT22;9763;48.780;9.212;2023-04-03T23:23:53;5.50;56.10
19258;DHT22;9763;48.780;9.212;2023-04-03T23:27:16;5.50;56.10
19258;DHT22;9763;48.780;9.212;2023-04-03T23:30:40;5.50;56.80
19258;DHT22;9763;48.780;9.212;2023-04-03T23:34:05;5.60;56.90
19258;DHT22;9763;48.780;9.212;2023-04-03T23:37:30;5.40;56.90
19258;DHT22;9763;48.780;9.212;2023-04-03T23:40:53;5.40;56.90
19258;DHT22;9763;48.780;9.212;2023-04-03T23:44:17;5.30;56.70
19258;DHT22;9763;48.780;9.212;2023-04-03T23:47:41;5.30;57.00
19258;DHT22;9763;48.780;9.212;2023-04-03T23:51:05;5.30;57.00
19258;DHT22;9763;48.780;9.212;2023-04-03T23:54:30;5.50;57.20
19258;DHT22;9763;48.780;9.212;2023-04-03T23:57:54;5.20;56.70
